Telegraph Creek, Canada
Current Conditions -  °F | °C
As of 8:56 PM on Monday 20 Oct 2014 (Local Time) from PAPG Reporting Station
Broken Clouds Broken Clouds  
Wind Chill: 45°   Ceiling: 4700
Heat Index: 45°   Visibility: 10mi
Dew Point: 41°   Wind: 0mph
Humidity: 87%   Direction: NA
Pressure: 29.42"   Gusts: NA
Location:  57.9°N, 131.15°W
Report Text: PAPG 210356Z 00000KT 10SM BKN047 07/05 A2942 RMK AO1
Loading
Personal Weather Stations






























Interactive Weather Map
Tropical Storm Tracking
New forecast layout! Learn more

10-Day Weather Forecast

Advertisements
Track Severe Weather on mobile